New Marshfield, Ohio
Current Conditions -  °F | °C
As of 1:15 AM on Wednesday 22 Oct 2014 (Local Time) from KUNI Reporting Station
Overcast Overcast  
Wind Chill: 43°   Ceiling: 1800
Heat Index: 46°   Visibility: 10mi
Dew Point: 40°   Wind: 5mph
Humidity: 80%   Direction: 310°NW
Pressure: 30.12"   Gusts: NA
Location:  39.33°N, 82.25°W
Report Text: KUNI 220515Z AUTO 31004KT 10SM BKN018 OVC026 08/04 A3012 RMK AO2 T00750043
Loading
Personal Weather Stations






























Interactive Weather Map
Tropical Storm Tracking
New forecast layout! Learn more

10-Day Weather Forecast

Advertisements
Track Severe Weather on mobile